sensor_id;sensor_type;location;lat;lon;timestamp;P1;durP1;ratioP1;P2;durP2;ratioP2
56005;SDS011;41888;44.696;10.522;2023-12-20T00:00:07;17.70;;;8.60;;
56005;SDS011;41888;44.696;10.522;2023-12-20T00:02:34;12.18;;;7.97;;
56005;SDS011;41888;44.696;10.522;2023-12-20T00:05:00;16.17;;;8.18;;
56005;SDS011;41888;44.696;10.522;2023-12-20T00:07:27;14.18;;;7.18;;
56005;SDS011;41888;44.696;10.522;2023-12-20T00:09:53;14.77;;;7.35;;
56005;SDS011;41888;44.696;10.522;2023-12-20T00:12:19;13.18;;;6.03;;
56005;SDS011;41888;44.696;10.522;2023-12-20T00:14:45;11.10;;;5.97;;
56005;SDS011;41888;44.696;10.522;2023-12-20T00:17:11;12.05;;;5.45;;
56005;SDS011;41888;44.696;10.522;2023-12-20T00:19:37;9.43;;;4.38;;
56005;SDS011;41888;44.696;10.522;2023-12-20T00:22:04;11.05;;;4.30;;
56005;SDS011;41888;44.696;10.522;2023-12-20T00:24:30;9.00;;;4.47;;
56005;SDS011;41888;44.696;10.522;2023-12-20T00:26:56;11.18;;;5.13;;
56005;SDS011;41888;44.696;10.522;2023-12-20T00:29:22;12.75;;;5.35;;
56005;SDS011;41888;44.696;10.522;2023-12-20T00:31:48;16.42;;;6.78;;
56005;SDS011;41888;44.696;10.522;2023-12-20T00:34:14;12.93;;;4.55;;
56005;SDS011;41888;44.696;10.522;2023-12-20T00:36:41;6.93;;;4.03;;
56005;SDS011;41888;44.696;10.522;2023-12-20T00:39:07;10.57;;;4.85;;
56005;SDS011;41888;44.696;10.522;2023-12-20T00:41:33;8.85;;;4.57;;
56005;SDS011;41888;44.696;10.522;2023-12-20T00:43:59;12.65;;;5.25;;
56005;SDS011;41888;44.696;10.522;2023-12-20T00:46:25;11.52;;;4.80;;
56005;SDS011;41888;44.696;10.522;2023-12-20T00:48:51;9.48;;;4.75;;
56005;SDS011;41888;44.696;10.522;2023-12-20T00:51:18;10.15;;;4.45;;
56005;SDS011;41888;44.696;10.522;2023-12-20T00:53:44;9.10;;;4.50;;
56005;SDS011;41888;44.696;10.522;2023-12-20T00:56:14;10.00;;;5.80;;
56005;SDS011;41888;44.696;10.522;2023-12-20T00:58:40;15.18;;;7.20;;
56005;SDS011;41888;44.696;10.522;2023-12-20T01:01:06;15.30;;;7.55;;
56005;SDS011;41888;44.696;10.522;2023-12-20T01:03:32;17.65;;;7.10;;
56005;SDS011;41888;44.696;10.522;2023-12-20T01:05:59;18.65;;;8.05;;
56005;SDS011;41888;44.696;10.522;2023-12-20T01:08:25;20.13;;;7.43;;
56005;SDS011;41888;44.696;10.522;2023-12-20T01:10:51;12.07;;;6.13;;
56005;SDS011;41888;44.696;10.522;2023-12-20T01:13:17;12.15;;;4.68;;
56005;SDS011;41888;44.696;10.522;2023-12-20T01:15:44;9.93;;;5.13;;
56005;SDS011;41888;44.696;10.522;2023-12-20T01:18:10;10.85;;;5.15;;
56005;SDS011;41888;44.696;10.522;2023-12-20T01:20:36;16.13;;;6.00;;
56005;SDS011;41888;44.696;10.522;2023-12-20T01:23:02;17.88;;;6.28;;
56005;SDS011;41888;44.696;10.522;2023-12-20T01:25:28;12.98;;;5.72;;
56005;SDS011;41888;44.696;10.522;2023-12-20T01:27:55;12.65;;;5.95;;
56005;SDS011;41888;44.696;10.522;2023-12-20T01:30:21;12.70;;;6.05;;
56005;SDS011;41888;44.696;10.522;2023-12-20T01:32:47;14.15;;;5.82;;
56005;SDS011;41888;44.696;10.522;2023-12-20T01:35:13;10.70;;;5.53;;
56005;SDS011;41888;44.696;10.522;2023-12-20T01:37:39;13.50;;;7.35;;
56005;SDS011;41888;44.696;10.522;2023-12-20T01:40:06;15.38;;;7.05;;
56005;SDS011;41888;44.696;10.522;2023-12-20T01:42:33;12.80;;;6.28;;
56005;SDS011;41888;44.696;10.522;2023-12-20T01:44:59;13.18;;;7.57;;
56005;SDS011;41888;44.696;10.522;2023-12-20T01:47:25;16.30;;;6.57;;
56005;SDS011;41888;44.696;10.522;2023-12-20T01:49:52;9.93;;;5.55;;
56005;SDS011;41888;44.696;10.522;2023-12-20T01:52:19;18.98;;;6.07;;
56005;SDS011;41888;44.696;10.522;2023-12-20T01:54:45;13.38;;;6.05;;
56005;SDS011;41888;44.696;10.522;2023-12-20T01:57:13;11.95;;;6.00;;
56005;SDS011;41888;44.696;10.522;2023-12-20T01:59:40;10.95;;;6.10;;
56005;SDS011;41888;44.696;10.522;2023-12-20T02:02:07;11.00;;;5.32;;
56005;SDS011;41888;44.696;10.522;2023-12-20T02:04:33;20.17;;;6.05;;
56005;SDS011;41888;44.696;10.522;2023-12-20T02:07:00;10.23;;;5.35;;
56005;SDS011;41888;44.696;10.522;2023-12-20T02:09:27;9.77;;;5.47;;
56005;SDS011;41888;44.696;10.522;2023-12-20T02:11:54;9.95;;;5.25;;
56005;SDS011;41888;44.696;10.522;2023-12-20T02:14:20;11.32;;;6.38;;
56005;SDS011;41888;44.696;10.522;2023-12-20T02:16:46;12.57;;;5.80;;
56005;SDS011;41888;44.696;10.522;2023-12-20T02:19:14;11.73;;;5.80;;
56005;SDS011;41888;44.696;10.522;2023-12-20T02:21:40;8.85;;;4.90;;
56005;SDS011;41888;44.696;10.522;2023-12-20T02:24:06;10.18;;;5.35;;
56005;SDS011;41888;44.696;10.522;2023-12-20T02:26:33;10.43;;;5.43;;
56005;SDS011;41888;44.696;10.522;2023-12-20T02:28:59;10.63;;;4.82;;
56005;SDS011;41888;44.696;10.522;2023-12-20T02:31:27;8.57;;;4.13;;
56005;SDS011;41888;44.696;10.522;2023-12-20T02:33:53;5.20;;;3.30;;
56005;SDS011;41888;44.696;10.522;2023-12-20T02:36:19;7.20;;;3.92;;
56005;SDS011;41888;44.696;10.522;2023-12-20T02:38:45;7.47;;;3.17;;
56005;SDS011;41888;44.696;10.522;2023-12-20T02:41:12;6.72;;;3.72;;
56005;SDS011;41888;44.696;10.522;2023-12-20T02:43:39;6.80;;;3.40;;
56005;SDS011;41888;44.696;10.522;2023-12-20T02:46:05;4.68;;;2.67;;
56005;SDS011;41888;44.696;10.522;2023-12-20T02:48:31;5.22;;;2.58;;
56005;SDS011;41888;44.696;10.522;2023-12-20T02:50:57;5.60;;;2.53;;
56005;SDS011;41888;44.696;10.522;2023-12-20T02:53:24;4.60;;;2.50;;
56005;SDS011;41888;44.696;10.522;2023-12-20T02:55:50;2.90;;;2.00;;
56005;SDS011;41888;44.696;10.522;2023-12-20T02:58:16;3.45;;;2.10;;
56005;SDS011;41888;44.696;10.522;2023-12-20T03:00:42;3.17;;;1.85;;
56005;SDS011;41888;44.696;10.522;2023-12-20T03:03:09;4.55;;;1.70;;
56005;SDS011;41888;44.696;10.522;2023-12-20T03:05:35;2.88;;;1.70;;
56005;SDS011;41888;44.696;10.522;2023-12-20T03:08:01;3.80;;;1.73;;
56005;SDS011;41888;44.696;10.522;2023-12-20T03:10:27;3.88;;;1.67;;
56005;SDS011;41888;44.696;10.522;2023-12-20T03:12:53;4.60;;;2.05;;
56005;SDS011;41888;44.696;10.522;2023-12-20T03:15:20;4.70;;;2.70;;
56005;SDS011;41888;44.696;10.522;2023-12-20T03:17:46;4.13;;;2.30;;
56005;SDS011;41888;44.696;10.522;2023-12-20T03:20:12;5.07;;;2.38;;
56005;SDS011;41888;44.696;10.522;2023-12-20T03:22:38;6.47;;;2.90;;
56005;SDS011;41888;44.696;10.522;2023-12-20T03:25:04;5.82;;;2.47;;
56005;SDS011;41888;44.696;10.522;2023-12-20T03:27:31;6.47;;;2.92;;
56005;SDS011;41888;44.696;10.522;2023-12-20T03:29:57;6.68;;;3.13;;
56005;SDS011;41888;44.696;10.522;2023-12-20T03:32:23;6.72;;;2.95;;
56005;SDS011;41888;44.696;10.522;2023-12-20T03:34:49;5.20;;;2.55;;
56005;SDS011;41888;44.696;10.522;2023-12-20T03:37:15;6.03;;;3.47;;
56005;SDS011;41888;44.696;10.522;2023-12-20T03:39:41;6.07;;;3.00;;
56005;SDS011;41888;44.696;10.522;2023-12-20T03:42:08;4.95;;;2.88;;
56005;SDS011;41888;44.696;10.522;2023-12-20T03:44:34;5.43;;;2.67;;
56005;SDS011;41888;44.696;10.522;2023-12-20T03:47:03;6.18;;;2.70;;
56005;SDS011;41888;44.696;10.522;2023-12-20T03:49:29;5.05;;;2.20;;
56005;SDS011;41888;44.696;10.522;2023-12-20T03:51:55;5.45;;;2.33;;
56005;SDS011;41888;44.696;10.522;2023-12-20T03:54:21;5.30;;;2.60;;
56005;SDS011;41888;44.696;10.522;2023-12-20T03:56:48;4.60;;;2.13;;
56005;SDS011;41888;44.696;10.522;2023-12-20T03:59:14;8.18;;;2.08;;
56005;SDS011;41888;44.696;10.522;2023-12-20T04:01:43;3.80;;;2.25;;
56005;SDS011;41888;44.696;10.522;2023-12-20T04:04:10;4.55;;;2.20;;
56005;SDS011;41888;44.696;10.522;2023-12-20T04:06:36;4.65;;;1.98;;
56005;SDS011;41888;44.696;10.522;2023-12-20T04:09:02;4.43;;;2.22;;
56005;SDS011;41888;44.696;10.522;2023-12-20T04:11:29;4.65;;;2.03;;
56005;SDS011;41888;44.696;10.522;2023-12-20T04:13:55;4.68;;;2.00;;
56005;SDS011;41888;44.696;10.522;2023-12-20T04:16:21;4.63;;;2.50;;
56005;SDS011;41888;44.696;10.522;2023-12-20T04:18:47;5.13;;;1.98;;
56005;SDS011;41888;44.696;10.522;2023-12-20T04:21:14;3.78;;;1.90;;
56005;SDS011;41888;44.696;10.522;2023-12-20T04:23:40;4.05;;;2.58;;
56005;SDS011;41888;44.696;10.522;2023-12-20T04:26:06;4.10;;;1.60;;
56005;SDS011;41888;44.696;10.522;2023-12-20T04:28:32;5.20;;;1.90;;
56005;SDS011;41888;44.696;10.522;2023-12-20T04:30:58;5.35;;;2.65;;
56005;SDS011;41888;44.696;10.522;2023-12-20T04:33:24;7.32;;;2.90;;
56005;SDS011;41888;44.696;10.522;2023-12-20T04:35:50;5.00;;;2.17;;
56005;SDS011;41888;44.696;10.522;2023-12-20T04:38:17;4.43;;;2.50;;
56005;SDS011;41888;44.696;10.522;2023-12-20T04:40:43;4.72;;;1.95;;
56005;SDS011;41888;44.696;10.522;2023-12-20T04:43:09;6.05;;;1.98;;
56005;SDS011;41888;44.696;10.522;2023-12-20T04:45:35;6.18;;;2.47;;
56005;SDS011;41888;44.696;10.522;2023-12-20T04:48:02;4.78;;;2.38;;
56005;SDS011;41888;44.696;10.522;2023-12-20T04:50:29;5.47;;;1.90;;
56005;SDS011;41888;44.696;10.522;2023-12-20T04:52:55;4.72;;;2.08;;
56005;SDS011;41888;44.696;10.522;2023-12-20T04:55:21;4.07;;;2.80;;
56005;SDS011;41888;44.696;10.522;2023-12-20T04:57:47;4.28;;;2.00;;
56005;SDS011;41888;44.696;10.522;2023-12-20T05:00:13;4.93;;;2.17;;
56005;SDS011;41888;44.696;10.522;2023-12-20T05:02:40;4.43;;;2.38;;
56005;SDS011;41888;44.696;10.522;2023-12-20T05:05:07;4.43;;;1.88;;
56005;SDS011;41888;44.696;10.522;2023-12-20T05:07:33;3.83;;;2.42;;
56005;SDS011;41888;44.696;10.522;2023-12-20T05:10:00;4.75;;;2.08;;
56005;SDS011;41888;44.696;10.522;2023-12-20T05:12:26;5.63;;;2.47;;
56005;SDS011;41888;44.696;10.522;2023-12-20T05:14:53;4.78;;;2.35;;
56005;SDS011;41888;44.696;10.522;2023-12-20T05:17:19;4.88;;;2.83;;
56005;SDS011;41888;44.696;10.522;2023-12-20T05:19:45;4.55;;;2.88;;
56005;SDS011;41888;44.696;10.522;2023-12-20T05:22:11;5.88;;;2.80;;
56005;SDS011;41888;44.696;10.522;2023-12-20T05:24:38;5.43;;;2.67;;
56005;SDS011;41888;44.696;10.522;2023-12-20T05:27:04;4.75;;;2.75;;
56005;SDS011;41888;44.696;10.522;2023-12-20T05:29:30;5.70;;;2.97;;
56005;SDS011;41888;44.696;10.522;2023-12-20T05:31:57;6.43;;;3.03;;
56005;SDS011;41888;44.696;10.522;2023-12-20T05:34:24;6.00;;;3.35;;
56005;SDS011;41888;44.696;10.522;2023-12-20T05:36:50;7.18;;;4.30;;
56005;SDS011;41888;44.696;10.522;2023-12-20T05:39:16;6.97;;;3.53;;
56005;SDS011;41888;44.696;10.522;2023-12-20T05:41:42;8.43;;;5.05;;
56005;SDS011;41888;44.696;10.522;2023-12-20T05:44:08;12.45;;;6.25;;
56005;SDS011;41888;44.696;10.522;2023-12-20T05:46:35;7.78;;;3.60;;
56005;SDS011;41888;44.696;10.522;2023-12-20T05:49:01;4.90;;;3.47;;
56005;SDS011;41888;44.696;10.522;2023-12-20T05:51:28;5.35;;;3.10;;
56005;SDS011;41888;44.696;10.522;2023-12-20T05:53:54;7.13;;;3.28;;
56005;SDS011;41888;44.696;10.522;2023-12-20T05:56:20;6.97;;;4.25;;
56005;SDS011;41888;44.696;10.522;2023-12-20T05:58:47;6.00;;;3.72;;
56005;SDS011;41888;44.696;10.522;2023-12-20T06:01:16;4.32;;;2.85;;
56005;SDS011;41888;44.696;10.522;2023-12-20T06:03:42;11.38;;;3.63;;
56005;SDS011;41888;44.696;10.522;2023-12-20T06:06:09;7.78;;;3.72;;
56005;SDS011;41888;44.696;10.522;2023-12-20T06:08:36;6.25;;;3.65;;
56005;SDS011;41888;44.696;10.522;2023-12-20T06:11:02;8.10;;;4.28;;
56005;SDS011;41888;44.696;10.522;2023-12-20T06:13:28;7.18;;;3.70;;
56005;SDS011;41888;44.696;10.522;2023-12-20T06:15:54;6.35;;;3.22;;
56005;SDS011;41888;44.696;10.522;2023-12-20T06:18:21;6.00;;;2.90;;
56005;SDS011;41888;44.696;10.522;2023-12-20T06:20:48;8.73;;;4.28;;
56005;SDS011;41888;44.696;10.522;2023-12-20T06:23:14;7.50;;;4.20;;
56005;SDS011;41888;44.696;10.522;2023-12-20T06:25:40;10.75;;;4.80;;
56005;SDS011;41888;44.696;10.522;2023-12-20T06:28:07;13.68;;;5.30;;
56005;SDS011;41888;44.696;10.522;2023-12-20T06:30:35;8.52;;;3.35;;
56005;SDS011;41888;44.696;10.522;2023-12-20T06:33:01;18.15;;;7.75;;
56005;SDS011;41888;44.696;10.522;2023-12-20T06:35:27;12.48;;;5.78;;
56005;SDS011;41888;44.696;10.522;2023-12-20T06:37:53;7.25;;;3.17;;
56005;SDS011;41888;44.696;10.522;2023-12-20T06:40:20;5.38;;;3.10;;
56005;SDS011;41888;44.696;10.522;2023-12-20T06:42:46;7.28;;;3.20;;
56005;SDS011;41888;44.696;10.522;2023-12-20T06:45:12;7.05;;;3.25;;
56005;SDS011;41888;44.696;10.522;2023-12-20T06:47:38;7.10;;;3.22;;
56005;SDS011;41888;44.696;10.522;2023-12-20T06:50:05;5.97;;;2.95;;
56005;SDS011;41888;44.696;10.522;2023-12-20T06:52:33;7.15;;;3.42;;
56005;SDS011;41888;44.696;10.522;2023-12-20T06:55:00;6.95;;;3.03;;
56005;SDS011;41888;44.696;10.522;2023-12-20T06:57:26;11.88;;;3.20;;
56005;SDS011;41888;44.696;10.522;2023-12-20T06:59:53;5.93;;;2.90;;
56005;SDS011;41888;44.696;10.522;2023-12-20T07:02:19;7.22;;;3.47;;
56005;SDS011;41888;44.696;10.522;2023-12-20T07:04:46;7.68;;;3.53;;
56005;SDS011;41888;44.696;10.522;2023-12-20T07:07:12;8.48;;;4.18;;
56005;SDS011;41888;44.696;10.522;2023-12-20T07:09:38;7.78;;;3.67;;
56005;SDS011;41888;44.696;10.522;2023-12-20T07:12:07;6.47;;;3.30;;
56005;SDS011;41888;44.696;10.522;2023-12-20T07:14:34;13.25;;;3.97;;
56005;SDS011;41888;44.696;10.522;2023-12-20T07:17:00;9.00;;;3.53;;
56005;SDS011;41888;44.696;10.522;2023-12-20T07:19:26;19.27;;;8.00;;
56005;SDS011;41888;44.696;10.522;2023-12-20T07:21:53;16.20;;;7.25;;
56005;SDS011;41888;44.696;10.522;2023-12-20T07:24:19;11.52;;;6.78;;
56005;SDS011;41888;44.696;10.522;2023-12-20T07:26:45;11.25;;;6.95;;
56005;SDS011;41888;44.696;10.522;2023-12-20T07:29:12;6.95;;;4.45;;
56005;SDS011;41888;44.696;10.522;2023-12-20T07:31:38;8.23;;;3.90;;
56005;SDS011;41888;44.696;10.522;2023-12-20T07:34:04;6.10;;;3.15;;
56005;SDS011;41888;44.696;10.522;2023-12-20T07:36:30;5.25;;;2.50;;
56005;SDS011;41888;44.696;10.522;2023-12-20T07:38:56;8.65;;;3.75;;
56005;SDS011;41888;44.696;10.522;2023-12-20T07:41:23;4.25;;;2.20;;
56005;SDS011;41888;44.696;10.522;2023-12-20T07:43:49;4.97;;;3.13;;
56005;SDS011;41888;44.696;10.522;2023-12-20T07:46:15;6.72;;;2.53;;
56005;SDS011;41888;44.696;10.522;2023-12-20T07:48:41;7.55;;;3.30;;
56005;SDS011;41888;44.696;10.522;2023-12-20T07:51:07;6.05;;;3.05;;
56005;SDS011;41888;44.696;10.522;2023-12-20T07:53:34;9.50;;;2.50;;
56005;SDS011;41888;44.696;10.522;2023-12-20T07:56:01;7.38;;;2.88;;
56005;SDS011;41888;44.696;10.522;2023-12-20T07:58:27;4.32;;;1.95;;
56005;SDS011;41888;44.696;10.522;2023-12-20T08:00:55;5.10;;;2.58;;
56005;SDS011;41888;44.696;10.522;2023-12-20T08:03:21;7.68;;;3.55;;
56005;SDS011;41888;44.696;10.522;2023-12-20T08:05:47;9.98;;;3.45;;
56005;SDS011;41888;44.696;10.522;2023-12-20T08:08:13;6.82;;;3.33;;
56005;SDS011;41888;44.696;10.522;2023-12-20T08:10:39;6.38;;;3.55;;
56005;SDS011;41888;44.696;10.522;2023-12-20T08:13:05;15.88;;;7.20;;
56005;SDS011;41888;44.696;10.522;2023-12-20T08:15:32;12.65;;;5.38;;
56005;SDS011;41888;44.696;10.522;2023-12-20T08:17:58;4.55;;;2.05;;
56005;SDS011;41888;44.696;10.522;2023-12-20T08:20:24;6.70;;;2.75;;
56005;SDS011;41888;44.696;10.522;2023-12-20T08:22:50;8.43;;;2.80;;
56005;SDS011;41888;44.696;10.522;2023-12-20T08:25:17;7.55;;;3.42;;
56005;SDS011;41888;44.696;10.522;2023-12-20T08:27:43;9.43;;;3.67;;
56005;SDS011;41888;44.696;10.522;2023-12-20T08:30:09;9.30;;;4.65;;
56005;SDS011;41888;44.696;10.522;2023-12-20T08:32:36;6.65;;;4.07;;
56005;SDS011;41888;44.696;10.522;2023-12-20T08:35:02;6.78;;;4.15;;
56005;SDS011;41888;44.696;10.522;2023-12-20T08:37:29;8.48;;;5.00;;
56005;SDS011;41888;44.696;10.522;2023-12-20T08:39:55;12.05;;;5.32;;
56005;SDS011;41888;44.696;10.522;2023-12-20T08:42:21;15.98;;;7.47;;
56005;SDS011;41888;44.696;10.522;2023-12-20T08:44:49;13.95;;;7.57;;
56005;SDS011;41888;44.696;10.522;2023-12-20T08:47:15;13.95;;;7.07;;
56005;SDS011;41888;44.696;10.522;2023-12-20T08:49:42;17.02;;;7.32;;
56005;SDS011;41888;44.696;10.522;2023-12-20T08:52:09;14.30;;;7.30;;
56005;SDS011;41888;44.696;10.522;2023-12-20T08:54:35;12.57;;;7.55;;
56005;SDS011;41888;44.696;10.522;2023-12-20T08:57:01;16.55;;;7.53;;
56005;SDS011;41888;44.696;10.522;2023-12-20T08:59:27;20.95;;;9.50;;
56005;SDS011;41888;44.696;10.522;2023-12-20T09:01:53;19.45;;;9.63;;
56005;SDS011;41888;44.696;10.522;2023-12-20T09:04:21;16.00;;;8.65;;
56005;SDS011;41888;44.696;10.522;2023-12-20T09:06:47;18.15;;;9.27;;
56005;SDS011;41888;44.696;10.522;2023-12-20T09:09:13;18.02;;;9.65;;
56005;SDS011;41888;44.696;10.522;2023-12-20T09:11:39;19.27;;;10.10;;
56005;SDS011;41888;44.696;10.522;2023-12-20T09:14:07;19.80;;;10.40;;
56005;SDS011;41888;44.696;10.522;2023-12-20T09:16:33;18.17;;;9.73;;
56005;SDS011;41888;44.696;10.522;2023-12-20T09:18:59;23.30;;;9.25;;
56005;SDS011;41888;44.696;10.522;2023-12-20T09:21:26;17.90;;;8.88;;
56005;SDS011;41888;44.696;10.522;2023-12-20T09:23:52;16.95;;;6.82;;
56005;SDS011;41888;44.696;10.522;2023-12-20T09:26:18;17.10;;;8.95;;
56005;SDS011;41888;44.696;10.522;2023-12-20T09:28:44;16.98;;;8.40;;
56005;SDS011;41888;44.696;10.522;2023-12-20T09:31:10;15.15;;;7.38;;
56005;SDS011;41888;44.696;10.522;2023-12-20T09:33:37;12.68;;;7.10;;
56005;SDS011;41888;44.696;10.522;2023-12-20T09:36:03;13.15;;;7.13;;
56005;SDS011;41888;44.696;10.522;2023-12-20T09:38:30;15.90;;;8.20;;
56005;SDS011;41888;44.696;10.522;2023-12-20T09:40:56;13.20;;;7.13;;
56005;SDS011;41888;44.696;10.522;2023-12-20T09:43:23;13.73;;;6.95;;
56005;SDS011;41888;44.696;10.522;2023-12-20T09:45:53;12.93;;;6.55;;
56005;SDS011;41888;44.696;10.522;2023-12-20T09:48:23;11.25;;;5.93;;
56005;SDS011;41888;44.696;10.522;2023-12-20T09:50:53;14.60;;;6.63;;
56005;SDS011;41888;44.696;10.522;2023-12-20T09:53:20;12.05;;;6.28;;
56005;SDS011;41888;44.696;10.522;2023-12-20T09:55:48;15.32;;;5.97;;
56005;SDS011;41888;44.696;10.522;2023-12-20T09:58:14;13.60;;;6.63;;
56005;SDS011;41888;44.696;10.522;2023-12-20T10:00:42;13.52;;;6.45;;
56005;SDS011;41888;44.696;10.522;2023-12-20T10:03:08;11.52;;;6.00;;
56005;SDS011;41888;44.696;10.522;2023-12-20T10:05:34;15.93;;;6.90;;
56005;SDS011;41888;44.696;10.522;2023-12-20T10:08:01;11.73;;;6.45;;
56005;SDS011;41888;44.696;10.522;2023-12-20T10:10:28;13.20;;;6.20;;
56005;SDS011;41888;44.696;10.522;2023-12-20T10:13:12;14.35;;;6.45;;
56005;SDS011;41888;44.696;10.522;2023-12-20T10:18:06;14.80;;;7.15;;
56005;SDS011;41888;44.696;10.522;2023-12-20T10:20:32;14.07;;;6.50;;
56005;SDS011;41888;44.696;10.522;2023-12-20T10:22:59;16.60;;;6.55;;
56005;SDS011;41888;44.696;10.522;2023-12-20T10:25:26;12.10;;;6.65;;
56005;SDS011;41888;44.696;10.522;2023-12-20T10:28:14;12.10;;;6.57;;
56005;SDS011;41888;44.696;10.522;2023-12-20T10:30:46;11.32;;;6.05;;
56005;SDS011;41888;44.696;10.522;2023-12-20T10:33:12;12.00;;;6.18;;
56005;SDS011;41888;44.696;10.522;2023-12-20T10:35:39;10.52;;;6.05;;
56005;SDS011;41888;44.696;10.522;2023-12-20T10:38:06;11.80;;;6.47;;
56005;SDS011;41888;44.696;10.522;2023-12-20T10:40:34;15.93;;;7.88;;
56005;SDS011;41888;44.696;10.522;2023-12-20T10:43:02;14.13;;;7.57;;
56005;SDS011;41888;44.696;10.522;2023-12-20T10:45:29;11.43;;;7.05;;
56005;SDS011;41888;44.696;10.522;2023-12-20T10:47:55;17.73;;;7.38;;
56005;SDS011;41888;44.696;10.522;2023-12-20T10:50:24;14.45;;;7.43;;
56005;SDS011;41888;44.696;10.522;2023-12-20T10:52:51;14.82;;;6.63;;
56005;SDS011;41888;44.696;10.522;2023-12-20T10:55:21;11.02;;;6.13;;
56005;SDS011;41888;44.696;10.522;2023-12-20T10:57:49;10.40;;;5.75;;
56005;SDS011;41888;44.696;10.522;2023-12-20T11:00:41;12.93;;;5.75;;
56005;SDS011;41888;44.696;10.522;2023-12-20T11:03:11;12.32;;;6.07;;
56005;SDS011;41888;44.696;10.522;2023-12-20T11:08:32;19.25;;;9.02;;
56005;SDS011;41888;44.696;10.522;2023-12-20T11:14:02;15.55;;;8.38;;
56005;SDS011;41888;44.696;10.522;2023-12-20T11:16:35;13.63;;;6.47;;
56005;SDS011;41888;44.696;10.522;2023-12-20T11:19:05;10.65;;;5.93;;
56005;SDS011;41888;44.696;10.522;2023-12-20T11:21:31;10.68;;;5.70;;
56005;SDS011;41888;44.696;10.522;2023-12-20T11:24:01;13.65;;;7.78;;
56005;SDS011;41888;44.696;10.522;2023-12-20T11:26:29;15.30;;;8.50;;
56005;SDS011;41888;44.696;10.522;2023-12-20T11:29:40;16.63;;;8.63;;
56005;SDS011;41888;44.696;10.522;2023-12-20T11:34:46;17.42;;;8.57;;
56005;SDS011;41888;44.696;10.522;2023-12-20T11:37:13;19.60;;;9.52;;
56005;SDS011;41888;44.696;10.522;2023-12-20T11:39:39;13.73;;;8.23;;
56005;SDS011;41888;44.696;10.522;2023-12-20T11:42:05;15.88;;;9.55;;
56005;SDS011;41888;44.696;10.522;2023-12-20T11:44:32;20.73;;;11.00;;
56005;SDS011;41888;44.696;10.522;2023-12-20T11:46:59;18.63;;;10.13;;
56005;SDS011;41888;44.696;10.522;2023-12-20T11:49:25;20.30;;;10.52;;
56005;SDS011;41888;44.696;10.522;2023-12-20T11:51:54;15.95;;;9.45;;
56005;SDS011;41888;44.696;10.522;2023-12-20T11:54:20;19.63;;;10.85;;
56005;SDS011;41888;44.696;10.522;2023-12-20T11:56:46;20.08;;;10.77;;
56005;SDS011;41888;44.696;10.522;2023-12-20T11:59:13;19.30;;;10.18;;
56005;SDS011;41888;44.696;10.522;2023-12-20T12:01:40;16.30;;;9.75;;
56005;SDS011;41888;44.696;10.522;2023-12-20T12:04:13;19.48;;;10.80;;
56005;SDS011;41888;44.696;10.522;2023-12-20T12:06:40;18.58;;;10.82;;
56005;SDS011;41888;44.696;10.522;2023-12-20T12:09:06;18.67;;;10.45;;
56005;SDS011;41888;44.696;10.522;2023-12-20T12:11:33;18.30;;;10.60;;
56005;SDS011;41888;44.696;10.522;2023-12-20T12:13:59;21.10;;;11.82;;
56005;SDS011;41888;44.696;10.522;2023-12-20T12:16:26;25.65;;;13.55;;
56005;SDS011;41888;44.696;10.522;2023-12-20T12:18:56;24.55;;;12.57;;
56005;SDS011;41888;44.696;10.522;2023-12-20T12:21:22;23.05;;;13.95;;
56005;SDS011;41888;44.696;10.522;2023-12-20T12:23:49;23.33;;;11.88;;
56005;SDS011;41888;44.696;10.522;2023-12-20T12:26:15;20.42;;;11.57;;
56005;SDS011;41888;44.696;10.522;2023-12-20T12:28:42;26.02;;;13.10;;
56005;SDS011;41888;44.696;10.522;2023-12-20T12:31:08;21.67;;;12.23;;
56005;SDS011;41888;44.696;10.522;2023-12-20T12:33:42;21.08;;;10.63;;
56005;SDS011;41888;44.696;10.522;2023-12-20T12:36:09;18.95;;;10.50;;
56005;SDS011;41888;44.696;10.522;2023-12-20T12:38:37;27.33;;;13.10;;
56005;SDS011;41888;44.696;10.522;2023-12-20T12:41:04;22.65;;;11.68;;
56005;SDS011;41888;44.696;10.522;2023-12-20T12:43:31;23.15;;;11.68;;
56005;SDS011;41888;44.696;10.522;2023-12-20T12:46:06;21.00;;;12.35;;
56005;SDS011;41888;44.696;10.522;2023-12-20T12:48:32;23.73;;;11.32;;
56005;SDS011;41888;44.696;10.522;2023-12-20T12:50:59;20.15;;;11.32;;
56005;SDS011;41888;44.696;10.522;2023-12-20T12:53:25;18.80;;;11.38;;
56005;SDS011;41888;44.696;10.522;2023-12-20T12:55:52;21.08;;;12.70;;
56005;SDS011;41888;44.696;10.522;2023-12-20T12:58:19;26.10;;;13.68;;
56005;SDS011;41888;44.696;10.522;2023-12-20T13:00:46;20.83;;;11.40;;
56005;SDS011;41888;44.696;10.522;2023-12-20T13:03:12;23.17;;;10.82;;
56005;SDS011;41888;44.696;10.522;2023-12-20T13:05:38;23.67;;;11.27;;
56005;SDS011;41888;44.696;10.522;2023-12-20T13:08:04;20.02;;;10.45;;
56005;SDS011;41888;44.696;10.522;2023-12-20T13:10:31;20.88;;;11.35;;
56005;SDS011;41888;44.696;10.522;2023-12-20T13:12:57;19.02;;;11.05;;
56005;SDS011;41888;44.696;10.522;2023-12-20T13:15:24;21.13;;;12.07;;
56005;SDS011;41888;44.696;10.522;2023-12-20T13:17:50;20.75;;;11.60;;
56005;SDS011;41888;44.696;10.522;2023-12-20T13:20:16;21.92;;;11.10;;
56005;SDS011;41888;44.696;10.522;2023-12-20T13:22:42;18.45;;;10.88;;
56005;SDS011;41888;44.696;10.522;2023-12-20T13:25:09;24.08;;;10.38;;
56005;SDS011;41888;44.696;10.522;2023-12-20T13:27:35;28.38;;;11.57;;
56005;SDS011;41888;44.696;10.522;2023-12-20T13:30:02;22.42;;;11.93;;
56005;SDS011;41888;44.696;10.522;2023-12-20T13:32:29;21.10;;;11.55;;
56005;SDS011;41888;44.696;10.522;2023-12-20T13:34:55;27.02;;;13.35;;
56005;SDS011;41888;44.696;10.522;2023-12-20T13:37:22;20.10;;;11.50;;
56005;SDS011;41888;44.696;10.522;2023-12-20T13:39:48;25.17;;;11.90;;
56005;SDS011;41888;44.696;10.522;2023-12-20T13:42:14;21.48;;;11.00;;
56005;SDS011;41888;44.696;10.522;2023-12-20T13:44:40;20.38;;;11.65;;
56005;SDS011;41888;44.696;10.522;2023-12-20T13:47:06;23.30;;;12.32;;
56005;SDS011;41888;44.696;10.522;2023-12-20T13:49:33;26.08;;;12.32;;
56005;SDS011;41888;44.696;10.522;2023-12-20T13:52:00;19.75;;;11.40;;
56005;SDS011;41888;44.696;10.522;2023-12-20T13:54:28;19.77;;;11.27;;
56005;SDS011;41888;44.696;10.522;2023-12-20T13:56:54;23.27;;;12.90;;
56005;SDS011;41888;44.696;10.522;2023-12-20T13:59:20;20.63;;;11.68;;
56005;SDS011;41888;44.696;10.522;2023-12-20T14:01:46;20.35;;;11.65;;
56005;SDS011;41888;44.696;10.522;2023-12-20T14:04:14;23.80;;;12.48;;
56005;SDS011;41888;44.696;10.522;2023-12-20T14:06:40;24.20;;;12.90;;
56005;SDS011;41888;44.696;10.522;2023-12-20T14:09:06;41.58;;;15.00;;
56005;SDS011;41888;44.696;10.522;2023-12-20T14:11:32;31.92;;;14.05;;
56005;SDS011;41888;44.696;10.522;2023-12-20T14:13:59;34.97;;;13.77;;
56005;SDS011;41888;44.696;10.522;2023-12-20T14:16:26;26.10;;;13.75;;
56005;SDS011;41888;44.696;10.522;2023-12-20T14:18:53;27.70;;;14.10;;
56005;SDS011;41888;44.696;10.522;2023-12-20T14:21:22;23.95;;;14.10;;
56005;SDS011;41888;44.696;10.522;2023-12-20T14:23:49;24.25;;;13.63;;
56005;SDS011;41888;44.696;10.522;2023-12-20T14:26:15;22.33;;;12.60;;
56005;SDS011;41888;44.696;10.522;2023-12-20T14:28:41;21.77;;;13.25;;
56005;SDS011;41888;44.696;10.522;2023-12-20T14:31:08;26.10;;;13.15;;